createdAt,value
2022-11-28T00:02:02.801Z,5.63
2022-11-28T00:04:32.300Z,6.20
2022-11-28T00:07:02.166Z,6.50
2022-11-28T00:09:31.728Z,4.78
2022-11-28T00:12:02.653Z,4.43
2022-11-28T00:14:32.182Z,6.10
2022-11-28T00:17:01.790Z,6.55
2022-11-28T00:19:31.149Z,4.15
2022-11-28T00:22:00.620Z,4.22
2022-11-28T00:24:30.100Z,7.13
2022-11-28T00:26:59.532Z,4.43
2022-11-28T00:29:30.529Z,5.43
2022-11-28T00:31:59.978Z,7.72
2022-11-28T00:34:29.498Z,7.57
2022-11-28T00:36:59.085Z,13.07
2022-11-28T00:39:28.416Z,11.23
2022-11-28T00:41:57.891Z,16.10
2022-11-28T00:44:28.810Z,20.70
2022-11-28T00:46:58.318Z,13.25
2022-11-28T00:51:10.366Z,7.85
2022-11-28T00:53:42.732Z,7.43
2022-11-28T00:56:14.650Z,6.53
2022-11-28T00:58:45.285Z,6.80
2022-11-28T01:01:18.270Z,9.20
2022-11-28T01:03:48.995Z,8.13
2022-11-28T01:06:26.761Z,7.05
2022-11-28T01:08:57.180Z,8.30
2022-11-28T01:11:26.862Z,6.95
2022-11-28T01:13:57.714Z,7.15
2022-11-28T01:16:27.545Z,5.90
2022-11-28T01:18:57.440Z,5.45
2022-11-28T01:21:29.272Z,6.78
2022-11-28T01:23:58.791Z,8.85
2022-11-28T01:26:31.751Z,6.97
2022-11-28T01:29:03.072Z,5.95
2022-11-28T01:31:33.168Z,6.43
2022-11-28T01:34:02.860Z,5.50
2022-11-28T01:36:34.449Z,7.40
2022-11-28T01:39:04.033Z,6.78
2022-11-28T01:45:03.780Z,5.80
2022-11-28T01:47:34.611Z,5.88
2022-11-28T01:50:07.266Z,6.43
2022-11-28T01:52:40.318Z,5.90
2022-11-28T01:55:12.706Z,5.43
2022-11-28T01:57:42.558Z,4.72
2022-11-28T02:00:15.710Z,5.32
2022-11-28T02:02:49.467Z,4.57
2022-11-28T02:05:24.072Z,6.72
2022-11-28T02:07:55.444Z,5.40
2022-11-28T02:10:29.026Z,5.32
2022-11-28T02:13:29.955Z,7.80
2022-11-28T02:16:33.955Z,6.35
2022-11-28T02:19:41.122Z,6.60
2022-11-28T02:22:16.570Z,6.03
2022-11-28T02:25:27.738Z,7.60
2022-11-28T02:28:32.830Z,6.53
2022-11-28T02:31:18.178Z,8.45
2022-11-28T02:33:54.270Z,6.97
2022-11-28T02:36:33.416Z,5.07
2022-11-28T02:39:15.338Z,8.52
2022-11-28T02:41:52.232Z,6.97
2022-11-28T02:44:26.312Z,8.38
2022-11-28T02:47:04.290Z,6.78
2022-11-28T02:49:40.303Z,5.35
2022-11-28T02:52:14.009Z,7.97
2022-11-28T02:54:45.886Z,6.35
2022-11-28T02:57:15.295Z,5.88
2022-11-28T02:59:52.192Z,6.63
2022-11-28T03:02:29.439Z,6.15
2022-11-28T03:05:12.626Z,8.63
2022-11-28T03:10:33.010Z,8.77
2022-11-28T03:13:20.218Z,7.60
2022-11-28T03:16:01.819Z,8.38
2022-11-28T03:18:37.834Z,8.45
2022-11-28T03:21:17.163Z,8.63
2022-11-28T03:23:52.726Z,9.55
2022-11-28T03:26:31.021Z,8.63
2022-11-28T03:29:13.318Z,7.85
2022-11-28T03:31:48.777Z,7.50
2022-11-28T03:34:22.550Z,8.63
2022-11-28T03:36:59.824Z,8.90
2022-11-28T03:39:36.913Z,8.65
2022-11-28T03:42:13.012Z,8.65
2022-11-28T03:44:49.870Z,8.32
2022-11-28T03:47:19.418Z,9.88
2022-11-28T03:52:07.248Z,9.30
2022-11-28T03:54:42.005Z,9.05
2022-11-28T03:57:16.974Z,7.82
2022-11-28T03:59:49.590Z,8.50
2022-11-28T04:02:27.521Z,9.80
2022-11-28T04:05:05.350Z,10.00
2022-11-28T04:07:43.335Z,10.10
2022-11-28T04:10:21.286Z,13.27
2022-11-28T04:12:58.726Z,11.02
2022-11-28T04:15:38.521Z,14.60
2022-11-28T04:18:21.024Z,11.65
2022-11-28T04:20:55.196Z,9.55
2022-11-28T04:23:28.642Z,8.77
2022-11-28T04:26:05.415Z,9.10
2022-11-28T04:28:37.291Z,10.50
2022-11-28T04:31:09.776Z,10.05
2022-11-28T04:33:45.522Z,12.35
2022-11-28T04:36:19.877Z,12.00
2022-11-28T04:38:56.729Z,14.20
2022-11-28T04:41:30.206Z,10.30
2022-11-28T04:44:06.884Z,9.70
2022-11-28T04:46:43.597Z,9.25
2022-11-28T04:49:14.113Z,11.73
2022-11-28T04:51:52.105Z,10.15
2022-11-28T04:54:33.128Z,10.52
2022-11-28T04:57:10.347Z,7.95
2022-11-28T04:59:42.138Z,9.43
2022-11-28T05:02:14.071Z,9.45
2022-11-28T05:04:45.970Z,10.80
2022-11-28T05:07:15.787Z,10.70
2022-11-28T05:09:46.751Z,10.45
2022-11-28T05:12:16.312Z,7.57
2022-11-28T05:14:45.912Z,6.63
2022-11-28T05:17:15.964Z,7.70
2022-11-28T05:19:45.409Z,5.78
2022-11-28T05:22:14.750Z,5.78
2022-11-28T05:24:45.897Z,6.70
2022-11-28T05:27:15.673Z,4.72
2022-11-28T05:29:51.903Z,3.55
2022-11-28T05:32:21.680Z,4.60
2022-11-28T05:34:51.060Z,4.57
2022-11-28T05:37:20.485Z,5.55
2022-11-28T05:39:51.324Z,5.07
2022-11-28T05:42:20.821Z,4.80
2022-11-28T05:44:50.668Z,2.08
2022-11-28T05:47:20.116Z,4.40
2022-11-28T05:49:50.150Z,5.25
2022-11-28T05:52:19.619Z,4.53
2022-11-28T05:54:50.419Z,3.88
2022-11-28T05:57:21.132Z,2.95
2022-11-28T05:59:50.486Z,2.90
2022-11-28T06:02:20.002Z,3.97
2022-11-28T06:04:49.496Z,3.63
2022-11-28T06:07:20.188Z,2.95
2022-11-28T06:09:50.967Z,3.70
2022-11-28T06:12:20.555Z,2.67
2022-11-28T06:14:49.839Z,2.72
2022-11-28T06:17:19.325Z,2.72
2022-11-28T06:19:48.854Z,3.47
2022-11-28T06:22:18.380Z,2.28
2022-11-28T06:24:49.425Z,2.70
2022-11-28T06:27:18.900Z,3.58
2022-11-28T06:29:48.292Z,2.55
2022-11-28T06:32:21.914Z,2.20
2022-11-28T06:34:51.816Z,3.58
2022-11-28T06:37:21.410Z,2.33
2022-11-28T06:39:52.626Z,1.77
2022-11-28T06:42:22.231Z,2.63
2022-11-28T06:44:51.712Z,3.17
2022-11-28T06:47:21.146Z,2.00
2022-11-28T06:52:02.938Z,2.53
2022-11-28T06:54:32.710Z,1.80
2022-11-28T06:57:02.237Z,2.78
2022-11-28T06:59:32.188Z,2.05
2022-11-28T07:02:07.196Z,1.98
2022-11-28T07:04:37.708Z,1.23
2022-11-28T07:07:10.680Z,1.48
2022-11-28T07:09:43.939Z,1.65
2022-11-28T07:12:13.684Z,1.42
2022-11-28T07:14:42.963Z,1.83
2022-11-28T07:17:12.273Z,1.80
2022-11-28T07:19:41.927Z,1.60
2022-11-28T07:22:14.046Z,1.50
2022-11-28T07:24:43.633Z,1.60
2022-11-28T07:27:13.003Z,1.60
2022-11-28T07:29:42.930Z,1.77
2022-11-28T07:32:12.906Z,2.08
2022-11-28T07:34:44.621Z,1.92
2022-11-28T07:37:18.543Z,1.63
2022-11-28T07:39:48.008Z,2.20
2022-11-28T07:42:18.679Z,1.73
2022-11-28T07:44:49.293Z,1.60
2022-11-28T07:47:18.623Z,2.58
2022-11-28T07:49:48.222Z,2.15
2022-11-28T07:52:19.000Z,2.67
2022-11-28T07:54:50.107Z,1.88
2022-11-28T07:57:20.275Z,2.10
2022-11-28T07:59:50.329Z,1.98
2022-11-28T08:02:19.762Z,2.28
2022-11-28T08:04:53.970Z,2.90
2022-11-28T08:07:26.252Z,1.77
2022-11-28T08:09:55.872Z,1.95
2022-11-28T08:12:25.339Z,3.13
2022-11-28T08:14:54.745Z,2.40
2022-11-28T08:17:24.230Z,2.67
2022-11-28T08:19:53.708Z,3.03
2022-11-28T08:22:24.413Z,3.00
2022-11-28T08:24:53.979Z,1.70
2022-11-28T08:27:23.510Z,1.73
2022-11-28T08:29:53.953Z,1.63
2022-11-28T08:32:23.733Z,1.38
2022-11-28T08:34:53.222Z,2.05
2022-11-28T08:37:22.551Z,1.58
2022-11-28T08:39:53.430Z,2.83
2022-11-28T08:42:23.569Z,3.42
2022-11-28T08:44:53.150Z,1.33
2022-11-28T08:47:22.591Z,2.53
2022-11-28T08:49:51.973Z,3.63
2022-11-28T08:52:22.384Z,1.40
2022-11-28T08:54:53.190Z,1.63
2022-11-28T08:57:22.747Z,2.85
2022-11-28T08:59:52.272Z,2.72
2022-11-28T09:02:25.814Z,5.18
2022-11-28T09:04:55.714Z,4.50
2022-11-28T09:07:25.211Z,2.67
2022-11-28T09:09:57.331Z,2.30
2022-11-28T09:12:26.824Z,1.30
2022-11-28T09:14:56.337Z,2.03
2022-11-28T09:17:25.913Z,1.60
2022-11-28T09:19:55.330Z,2.50
2022-11-28T09:22:24.717Z,1.98
2022-11-28T09:24:55.590Z,2.25
2022-11-28T09:27:25.066Z,2.05
2022-11-28T09:29:54.499Z,3.90
2022-11-28T09:32:23.962Z,4.63
2022-11-28T09:34:53.370Z,2.50
2022-11-28T09:37:22.910Z,2.83
2022-11-28T09:40:12.268Z,2.60
2022-11-28T09:42:45.982Z,2.78
2022-11-28T09:45:19.936Z,4.55
2022-11-28T09:47:53.384Z,2.63
2022-11-28T09:52:08.214Z,2.15
2022-11-28T09:54:48.979Z,1.75
2022-11-28T09:57:26.549Z,2.47
2022-11-28T09:59:57.593Z,27.23
2022-11-28T10:02:36.431Z,5.50
2022-11-28T10:05:19.151Z,2.67
2022-11-28T10:08:06.762Z,2.72
2022-11-28T10:10:50.600Z,1.35
2022-11-28T10:13:41.237Z,2.28
2022-11-28T10:16:25.676Z,1.40
2022-11-28T10:19:02.331Z,2.30
2022-11-28T10:21:39.755Z,3.17
2022-11-28T10:24:17.100Z,2.08
2022-11-28T10:26:51.942Z,1.92
2022-11-28T10:29:30.884Z,1.58
2022-11-28T10:32:03.850Z,2.30
2022-11-28T10:34:38.040Z,1.60
2022-11-28T10:37:12.399Z,1.67
2022-11-28T10:39:46.931Z,3.03
2022-11-28T10:42:28.216Z,2.03
2022-11-28T10:45:18.230Z,2.30
2022-11-28T10:48:29.884Z,1.73
2022-11-28T10:51:09.699Z,4.72
2022-11-28T10:53:53.239Z,3.70
2022-11-28T10:56:36.071Z,2.13
2022-11-28T10:59:20.123Z,6.00
2022-11-28T11:01:51.627Z,2.47
2022-11-28T11:04:26.902Z,2.85
2022-11-28T11:07:16.173Z,1.92
2022-11-28T11:09:47.958Z,3.22
2022-11-28T11:12:25.512Z,1.90
2022-11-28T11:14:55.491Z,5.32
2022-11-28T11:17:36.632Z,2.60
2022-11-28T11:20:34.993Z,2.00
2022-11-28T11:23:16.605Z,2.85
2022-11-28T11:25:56.450Z,2.53
2022-11-28T11:28:47.028Z,2.60
2022-11-28T11:31:25.555Z,3.50
2022-11-28T11:34:04.010Z,4.63
2022-11-28T11:36:37.974Z,3.10
2022-11-28T11:39:25.629Z,3.10
2022-11-28T11:42:13.739Z,2.83
2022-11-28T11:44:44.651Z,3.22
2022-11-28T11:47:14.060Z,4.97
2022-11-28T11:49:46.625Z,2.90
2022-11-28T11:52:23.677Z,2.55
2022-11-28T11:55:01.527Z,4.10
2022-11-28T11:57:37.228Z,2.70
2022-11-28T12:00:16.547Z,3.33
2022-11-28T12:02:51.569Z,1.50
2022-11-28T12:05:25.326Z,2.83
2022-11-28T12:08:01.606Z,2.58
2022-11-28T12:10:37.858Z,2.78
2022-11-28T12:13:07.449Z,4.22
2022-11-28T12:15:48.614Z,2.88
2022-11-28T12:18:34.243Z,2.75
2022-11-28T12:21:14.764Z,1.98
2022-11-28T12:24:08.795Z,2.70
2022-11-28T12:26:46.952Z,3.30
2022-11-28T12:29:48.773Z,2.50
2022-11-28T12:32:40.370Z,2.53
2022-11-28T12:35:28.596Z,1.90
2022-11-28T12:38:11.344Z,3.45
2022-11-28T12:40:58.300Z,1.83
2022-11-28T12:43:43.754Z,2.53
2022-11-28T12:46:24.996Z,2.03
2022-11-28T12:52:20.985Z,1.70
2022-11-28T12:55:13.843Z,1.60
2022-11-28T12:57:53.232Z,2.28
2022-11-28T13:00:25.608Z,1.95
2022-11-28T13:03:17.320Z,0.90
2022-11-28T13:06:05.191Z,1.45
2022-11-28T13:09:02.493Z,2.08
2022-11-28T13:11:51.208Z,1.30
2022-11-28T13:14:35.118Z,1.67
2022-11-28T13:17:20.326Z,1.67
2022-11-28T13:19:56.787Z,1.75
2022-11-28T13:22:29.712Z,1.58
2022-11-28T13:25:08.808Z,1.83
2022-11-28T13:27:49.767Z,1.98
2022-11-28T13:30:23.939Z,2.20
2022-11-28T13:33:03.120Z,1.98
2022-11-28T13:35:33.247Z,1.88
2022-11-28T13:41:35.189Z,2.75
2022-11-28T13:44:09.521Z,4.10
2022-11-28T13:46:39.046Z,2.90
2022-11-28T13:49:20.812Z,5.30
2022-11-28T13:51:50.933Z,6.28
2022-11-28T13:54:52.803Z,6.15
2022-11-28T13:57:33.235Z,6.63
2022-11-28T14:00:08.591Z,3.50
2022-11-28T14:02:46.855Z,6.50
2022-11-28T14:05:36.840Z,6.43
2022-11-28T14:08:08.546Z,7.38
2022-11-28T14:11:13.971Z,5.97
2022-11-28T14:14:17.741Z,6.07
2022-11-28T14:17:04.983Z,3.85
2022-11-28T14:19:57.364Z,6.10
2022-11-28T14:22:42.613Z,2.20
2022-11-28T14:25:19.341Z,3.00
2022-11-28T14:27:55.191Z,2.63
2022-11-28T14:30:34.051Z,2.20
2022-11-28T14:33:08.393Z,2.03
2022-11-28T14:36:26.231Z,2.95
2022-11-28T14:39:33.891Z,1.85
2022-11-28T14:42:59.600Z,2.95
2022-11-28T14:45:46.059Z,2.88
2022-11-28T14:48:31.998Z,2.30
2022-11-28T14:51:02.662Z,2.42
2022-11-28T14:53:47.521Z,1.77
2022-11-28T14:56:30.542Z,2.78
2022-11-28T14:59:03.686Z,2.47
2022-11-28T15:01:50.764Z,2.47
2022-11-28T15:04:50.249Z,3.97
2022-11-28T15:07:33.296Z,2.15
2022-11-28T15:12:52.339Z,2.35
2022-11-28T15:17:56.880Z,3.65
2022-11-28T15:20:31.511Z,6.03
2022-11-28T15:23:00.924Z,8.10
2022-11-28T15:25:35.818Z,4.90
2022-11-28T15:28:17.033Z,2.28
2022-11-28T15:30:49.290Z,4.78
2022-11-28T15:33:20.487Z,6.70
2022-11-28T15:36:02.345Z,6.75
2022-11-28T15:38:34.112Z,6.18
2022-11-28T15:41:03.524Z,5.18
2022-11-28T15:43:33.445Z,5.05
2022-11-28T15:46:04.251Z,2.63
2022-11-28T15:52:05.578Z,3.25
2022-11-28T15:54:43.774Z,1.60
2022-11-28T15:57:25.420Z,1.15
2022-11-28T15:59:55.784Z,1.20
2022-11-28T16:02:32.541Z,1.30
2022-11-28T16:05:09.012Z,2.22
2022-11-28T16:07:45.308Z,1.42
2022-11-28T16:10:25.364Z,1.23
2022-11-28T16:13:02.667Z,1.65
2022-11-28T16:15:33.467Z,1.48
2022-11-28T16:18:03.053Z,2.35
2022-11-28T16:20:38.136Z,1.35
2022-11-28T16:23:16.333Z,1.30
2022-11-28T16:25:47.291Z,1.02
2022-11-28T16:28:36.066Z,1.77
2022-11-28T16:31:13.541Z,1.35
2022-11-28T16:33:45.078Z,1.70
2022-11-28T16:36:23.307Z,1.35
2022-11-28T16:39:06.781Z,0.82
2022-11-28T16:41:36.958Z,1.05
2022-11-28T16:44:11.519Z,1.60
2022-11-28T16:46:50.258Z,1.30
2022-11-28T16:49:36.639Z,1.88
2022-11-28T16:52:54.119Z,1.42
2022-11-28T16:55:46.618Z,1.70
2022-11-28T16:58:24.025Z,1.83
2022-11-28T17:01:04.671Z,2.17
2022-11-28T17:03:58.233Z,2.97
2022-11-28T17:06:34.207Z,1.05
2022-11-28T17:09:04.861Z,0.98
2022-11-28T17:11:38.910Z,2.00
2022-11-28T17:14:13.209Z,2.40
2022-11-28T17:16:43.993Z,1.30
2022-11-28T17:19:13.681Z,1.63
2022-11-28T17:21:46.215Z,0.68
2022-11-28T17:24:20.483Z,1.40
2022-11-28T17:26:52.526Z,1.50
2022-11-28T17:29:22.975Z,3.03
2022-11-28T17:31:55.427Z,1.42
2022-11-28T17:34:27.044Z,2.17
2022-11-28T17:36:56.549Z,1.30
2022-11-28T17:39:27.683Z,3.55
2022-11-28T17:41:59.468Z,3.05
2022-11-28T17:44:31.989Z,3.60
2022-11-28T17:47:03.406Z,2.05
2022-11-28T17:49:33.433Z,2.47
2022-11-28T17:52:02.902Z,3.13
2022-11-28T17:54:32.269Z,3.63
2022-11-28T17:57:03.083Z,1.38
2022-11-28T17:59:34.532Z,1.67
2022-11-28T18:02:04.190Z,2.25
2022-11-28T18:04:33.572Z,1.98
2022-11-28T18:07:03.059Z,1.63
2022-11-28T18:09:32.469Z,1.10
2022-11-28T18:12:03.306Z,1.67
2022-11-28T18:14:38.113Z,2.67
2022-11-28T18:17:09.092Z,1.25
2022-11-28T18:19:38.414Z,3.67
2022-11-28T18:22:08.910Z,1.17
2022-11-28T18:24:38.345Z,1.20
2022-11-28T18:27:09.277Z,0.90
2022-11-28T18:29:39.390Z,1.67
2022-11-28T18:32:08.996Z,0.70
2022-11-28T18:34:38.343Z,1.38
2022-11-28T18:37:07.832Z,1.17
2022-11-28T18:39:37.537Z,4.20
2022-11-28T18:42:08.381Z,2.08
2022-11-28T18:44:37.843Z,1.75
2022-11-28T18:47:07.420Z,1.60
2022-11-28T18:52:03.162Z,0.82
2022-11-28T18:54:33.334Z,8.35
2022-11-28T18:57:03.007Z,1.10
2022-11-28T18:59:32.492Z,2.95
2022-11-28T19:02:02.033Z,0.50
2022-11-28T19:04:31.568Z,0.82
2022-11-28T19:07:04.167Z,1.02
2022-11-28T19:09:33.671Z,0.68
2022-11-28T19:12:03.167Z,0.80
2022-11-28T19:14:32.873Z,1.13
2022-11-28T19:17:03.025Z,1.02
2022-11-28T19:19:33.309Z,1.17
2022-11-28T19:22:04.187Z,0.75
2022-11-28T19:24:33.692Z,1.33
2022-11-28T19:27:03.167Z,1.65
2022-11-28T19:29:32.809Z,1.58
2022-11-28T19:32:02.148Z,2.72
2022-11-28T19:34:31.559Z,1.30
2022-11-28T19:37:02.428Z,1.23
2022-11-28T19:39:31.888Z,1.98
2022-11-28T19:42:01.481Z,0.75
2022-11-28T19:44:31.073Z,1.52
2022-11-28T19:47:01.080Z,1.52
2022-11-28T19:49:30.692Z,2.08
2022-11-28T19:52:00.137Z,1.38
2022-11-28T19:54:30.935Z,0.60
2022-11-28T19:57:00.468Z,0.77
2022-11-28T19:59:31.549Z,0.80
2022-11-28T20:02:02.919Z,0.75
2022-11-28T20:04:32.405Z,1.55
2022-11-28T20:07:02.000Z,1.10
2022-11-28T20:09:33.395Z,0.80
2022-11-28T20:12:02.891Z,0.68
2022-11-28T20:14:32.754Z,0.80
2022-11-28T20:17:02.429Z,0.82
2022-11-28T20:19:31.981Z,0.60
2022-11-28T20:22:01.451Z,0.47
2022-11-28T20:24:32.329Z,1.20
2022-11-28T20:27:01.659Z,1.27
2022-11-28T20:29:31.498Z,1.00
2022-11-28T20:32:00.991Z,1.45
2022-11-28T20:34:30.693Z,1.35
2022-11-28T20:37:02.126Z,2.22
2022-11-28T20:39:33.051Z,1.55
2022-11-28T20:42:02.452Z,2.25
2022-11-28T20:44:31.879Z,2.13
2022-11-28T20:47:01.250Z,13.73
2022-11-28T20:49:30.604Z,18.05
2022-11-28T20:52:00.108Z,7.55
2022-11-28T20:54:29.850Z,4.07
2022-11-28T20:59:50.841Z,8.30
2022-11-28T21:02:20.269Z,4.57
2022-11-28T21:04:49.699Z,4.03
2022-11-28T21:07:19.549Z,4.60
2022-11-28T21:09:49.104Z,3.33
2022-11-28T21:12:21.281Z,2.63
2022-11-28T21:14:52.242Z,2.53
2022-11-28T21:17:21.779Z,2.88
2022-11-28T21:19:51.211Z,9.65
2022-11-28T21:22:20.564Z,7.63
2022-11-28T21:24:52.020Z,3.38
2022-11-28T21:27:22.742Z,4.38
2022-11-28T21:29:53.492Z,2.28
2022-11-28T21:32:22.794Z,2.65
2022-11-28T21:34:53.370Z,1.90
2022-11-28T21:37:22.674Z,2.60
2022-11-28T21:39:52.213Z,3.20
2022-11-28T21:42:23.088Z,2.10
2022-11-28T21:44:52.503Z,1.83
2022-11-28T21:47:22.047Z,1.25
2022-11-28T21:52:02.841Z,2.15
2022-11-28T21:54:32.084Z,3.67
2022-11-28T21:57:01.626Z,1.73
2022-11-28T21:59:30.952Z,1.90
2022-11-28T22:02:00.543Z,1.20
2022-11-28T22:04:30.079Z,1.20
2022-11-28T22:06:59.426Z,1.08
2022-11-28T22:09:30.432Z,1.45
2022-11-28T22:11:59.770Z,1.98
2022-11-28T22:14:36.351Z,1.50
2022-11-28T22:17:06.183Z,1.40
2022-11-28T22:19:35.632Z,0.77
2022-11-28T22:22:05.018Z,0.30
2022-11-28T22:24:36.131Z,2.65
2022-11-28T22:27:05.732Z,12.45
2022-11-28T22:29:35.162Z,11.00
2022-11-28T22:32:04.743Z,1.55
2022-11-28T22:34:38.474Z,1.40
2022-11-28T22:37:09.505Z,0.82
2022-11-28T22:39:40.512Z,1.73
2022-11-28T22:42:10.040Z,7.95
2022-11-28T22:44:39.412Z,16.15
2022-11-28T22:47:08.856Z,7.40
2022-11-28T22:49:38.156Z,2.08
2022-11-28T22:52:07.845Z,1.00
2022-11-28T22:54:38.788Z,0.50
2022-11-28T22:57:08.331Z,0.60
2022-11-28T22:59:38.801Z,0.95
2022-11-28T23:02:09.997Z,1.08
2022-11-28T23:04:39.487Z,0.73
2022-11-28T23:07:08.965Z,0.60
2022-11-28T23:09:39.995Z,1.15
2022-11-28T23:12:09.604Z,0.88
2022-11-28T23:14:39.072Z,1.30
2022-11-28T23:17:08.706Z,0.70
2022-11-28T23:19:38.345Z,0.30
2022-11-28T23:22:07.860Z,0.70
2022-11-28T23:24:38.656Z,0.52
2022-11-28T23:27:08.105Z,0.70
2022-11-28T23:29:37.640Z,0.40
2022-11-28T23:32:07.680Z,0.60
2022-11-28T23:34:37.051Z,0.75
2022-11-28T23:37:06.532Z,0.30
2022-11-28T23:39:35.981Z,0.85
2022-11-28T23:42:07.166Z,0.30
2022-11-28T23:44:36.710Z,0.75
2022-11-28T23:47:06.770Z,0.50
2022-11-28T23:49:36.072Z,0.57
2022-11-28T23:52:05.735Z,0.47
2022-11-28T23:54:35.209Z,0.40
2022-11-28T23:57:06.192Z,0.13
2022-11-28T23:59:35.795Z,0.17
